Time;durP1;ratioP1;P1;durP2;ratioP2;P2;SDS_P1;SDS_P2;PMS_P1;PMS_P2;Temp;Humidity;BMP_temperature;BMP_pressure;BME280_temperature;BME280_humidity;BME280_pressure;Samples;Min_cycle;Max_cycle;Signal;HPM_P1;HPM_P2
2024/01/27 00:00:08;;;;;;;17.67;4.10;;;5.80;99.90;;;;;;5031200;28;20440;-75
2024/01/27 00:02:34;;;;;;;8.77;4.13;;;5.70;99.90;;;;;;5030739;28;20301;-76
2024/01/27 00:05:00;;;;;;;8.87;3.93;;;5.70;99.90;;;;;;5031684;28;20437;-76
2024/01/27 00:07:27;;;;;;;12.00;4.30;;;5.80;99.90;;;;;;5030584;28;21788;-76
2024/01/27 00:09:54;;;;;;;12.23;4.30;;;5.70;99.90;;;;;;5031160;28;20196;-76
2024/01/27 00:12:20;;;;;;;7.40;3.50;;;5.70;99.90;;;;;;5029040;28;21190;-76
2024/01/27 00:14:45;;;;;;;14.23;4.73;;;5.70;99.90;;;;;;5030757;28;20434;-76
2024/01/27 00:17:11;;;;;;;12.50;4.20;;;5.70;99.90;;;;;;5030031;28;20530;-75
2024/01/27 00:19:37;;;;;;;12.77;4.23;;;5.70;99.90;;;;;;5031175;28;20663;-76
2024/01/27 00:22:02;;;;;;;11.83;3.80;;;5.70;99.90;;;;;;5029746;28;20190;-76
2024/01/27 00:24:28;;;;;;;17.03;4.60;;;5.70;99.90;;;;;;5029363;28;20186;-76
2024/01/27 00:26:54;;;;;;;8.40;4.10;;;5.60;99.90;;;;;;5031404;28;20187;-76
2024/01/27 00:29:20;;;;;;;12.93;4.67;;;5.60;99.90;;;;;;5030086;28;20238;-76
2024/01/27 00:31:46;;;;;;;19.87;5.40;;;5.60;99.90;;;;;;5030798;28;20189;-76
2024/01/27 00:34:12;;;;;;;11.17;4.03;;;5.60;99.90;;;;;;5031682;28;20432;-75
2024/01/27 00:36:37;;;;;;;6.83;4.10;;;5.50;99.90;;;;;;5034155;28;20185;-75
2024/01/27 00:39:04;;;;;;;10.33;4.57;;;5.50;99.90;;;;;;5033488;28;20433;-75
2024/01/27 00:41:30;;;;;;;9.10;4.03;;;5.50;99.90;;;;;;5035167;28;20182;-76
2024/01/27 00:43:56;;;;;;;11.43;4.37;;;5.50;99.90;;;;;;5034712;28;20429;-76
2024/01/27 00:46:22;;;;;;;11.53;4.60;;;5.50;99.90;;;;;;5033166;28;21247;-76
2024/01/27 00:48:47;;;;;;;12.67;6.70;;;5.50;99.90;;;;;;5034008;28;20479;-75
2024/01/27 00:51:13;;;;;;;11.47;4.17;;;5.50;99.90;;;;;;5033026;28;20657;-76
2024/01/27 00:53:41;;;;;;;11.83;4.57;;;5.50;99.90;;;;;;5034717;28;20187;-76
2024/01/27 00:56:06;;;;;;;15.50;4.57;;;5.50;99.90;;;;;;5032134;28;20444;-75
2024/01/27 00:58:33;;;;;;;7.00;4.10;;;5.50;99.90;;;;;;5034136;28;20793;-75
2024/01/27 01:00:59;;;;;;;9.93;4.47;;;5.50;99.90;;;;;;5032507;28;20813;-76
2024/01/27 01:03:25;;;;;;;15.97;4.87;;;5.50;99.90;;;;;;5033303;28;20425;-76
2024/01/27 01:05:50;;;;;;;11.73;4.07;;;5.50;99.90;;;;;;5034930;28;20688;-75
2024/01/27 01:08:16;;;;;;;17.83;4.77;;;5.50;99.90;;;;;;5033689;28;20222;-75
2024/01/27 01:10:42;;;;;;;9.47;4.07;;;5.50;99.90;;;;;;5033066;28;20187;-75
2024/01/27 01:13:07;;;;;;;8.67;4.33;;;5.40;99.90;;;;;;5032241;28;20213;-76
2024/01/27 01:15:33;;;;;;;8.90;4.43;;;5.50;99.90;;;;;;5034352;28;20209;-76
2024/01/27 01:17:59;;;;;;;13.20;4.53;;;5.40;99.90;;;;;;5034750;28;20194;-75
2024/01/27 01:20:26;;;;;;;9.70;4.17;;;5.40;99.90;;;;;;5034803;28;20622;-76
2024/01/27 01:22:52;;;;;;;10.60;3.97;;;5.40;99.90;;;;;;5033477;28;20825;-75
2024/01/27 01:25:18;;;;;;;11.67;4.40;;;5.30;99.90;;;;;;5033074;28;20451;-76
2024/01/27 01:27:45;;;;;;;11.20;5.50;;;5.30;99.90;;;;;;5034389;28;20545;-76
2024/01/27 01:30:11;;;;;;;10.63;5.20;;;5.40;99.90;;;;;;5034060;28;20433;-76
2024/01/27 01:32:37;;;;;;;9.83;4.20;;;5.30;99.90;;;;;;5033928;28;20468;-76
2024/01/27 01:35:03;;;;;;;8.63;3.93;;;5.30;99.90;;;;;;5033546;28;20991;-76
2024/01/27 01:37:29;;;;;;;8.83;4.20;;;5.30;99.90;;;;;;5034462;28;20533;-76
2024/01/27 01:39:55;;;;;;;15.63;4.47;;;5.40;99.90;;;;;;5033985;28;20435;-76
2024/01/27 01:42:24;;;;;;;10.93;3.60;;;5.40;99.90;;;;;;5033316;28;20696;-76
2024/01/27 01:44:51;;;;;;;12.60;5.90;;;5.40;99.90;;;;;;5034530;28;20189;-76
2024/01/27 01:47:17;;;;;;;8.93;3.90;;;5.30;99.90;;;;;;5033074;28;20837;-76
2024/01/27 01:49:43;;;;;;;11.17;4.63;;;5.30;99.90;;;;;;5049706;28;20429;-76
2024/01/27 01:52:10;;;;;;;9.10;3.30;;;5.30;99.90;;;;;;5033189;28;20430;-76
2024/01/27 01:54:35;;;;;;;9.10;4.33;;;5.30;99.90;;;;;;5034577;28;20201;-75
2024/01/27 01:57:03;;;;;;;7.50;3.50;;;5.30;99.90;;;;;;5034033;28;20428;-75
2024/01/27 01:59:28;;;;;;;13.30;4.50;;;5.30;99.90;;;;;;5034259;28;20902;-76
2024/01/27 02:01:54;;;;;;;12.93;4.20;;;5.30;99.90;;;;;;5035577;28;20464;-76
2024/01/27 02:04:20;;;;;;;15.90;5.07;;;5.20;99.90;;;;;;5033413;28;20186;-75
2024/01/27 02:06:45;;;;;;;8.63;4.03;;;5.30;99.90;;;;;;5034304;28;20287;-75
2024/01/27 02:09:11;;;;;;;10.23;4.00;;;5.30;99.90;;;;;;5033768;28;20186;-76
2024/01/27 02:11:37;;;;;;;9.00;4.23;;;5.20;99.90;;;;;;5032865;28;20218;-76
2024/01/27 02:14:03;;;;;;;12.73;4.10;;;5.20;99.90;;;;;;5030826;28;20189;-76
2024/01/27 02:16:28;;;;;;;12.70;4.73;;;5.30;99.90;;;;;;5031710;28;20200;-75
2024/01/27 02:18:54;;;;;;;12.00;4.23;;;5.30;99.90;;;;;;5035042;28;20437;-75
2024/01/27 02:21:20;;;;;;;10.77;4.23;;;5.20;99.90;;;;;;5033200;28;21024;-77
2024/01/27 02:23:45;;;;;;;10.00;4.67;;;5.20;99.90;;;;;;5034384;28;20186;-76
2024/01/27 02:26:11;;;;;;;11.70;4.80;;;5.30;99.90;;;;;;5033529;28;21016;-76
2024/01/27 02:28:37;;;;;;;10.77;4.77;;;5.30;99.90;;;;;;5033755;28;20249;-76
2024/01/27 02:31:03;;;;;;;13.10;4.80;;;5.30;99.90;;;;;;5032873;28;20182;-76
2024/01/27 02:33:29;;;;;;;12.00;4.93;;;5.30;99.90;;;;;;5033024;28;20304;-75
2024/01/27 02:35:55;;;;;;;8.33;3.77;;;5.20;99.90;;;;;;5033907;28;20461;-75
2024/01/27 02:38:20;;;;;;;7.67;3.97;;;5.20;99.90;;;;;;5033016;28;21236;-76
2024/01/27 02:40:46;;;;;;;11.60;5.07;;;5.20;99.90;;;;;;5033959;28;20324;-75
2024/01/27 02:43:12;;;;;;;14.70;5.17;;;5.20;99.90;;;;;;5032522;28;20200;-76
2024/01/27 02:45:37;;;;;;;14.10;5.67;;;5.10;99.90;;;;;;5033204;28;20205;-76
2024/01/27 02:48:03;;;;;;;13.57;5.37;;;5.10;99.90;;;;;;5031384;28;20221;-76
2024/01/27 02:50:29;;;;;;;6.97;4.30;;;5.10;99.90;;;;;;5033093;28;20272;-75
2024/01/27 02:52:55;;;;;;;11.67;4.43;;;5.10;99.90;;;;;;5033421;28;20440;-75
2024/01/27 02:55:21;;;;;;;11.10;4.10;;;5.10;99.90;;;;;;5032782;28;20422;-76
2024/01/27 02:57:46;;;;;;;11.07;4.60;;;5.10;99.90;;;;;;5032818;28;20186;-75
2024/01/27 03:00:12;;;;;;;10.93;4.83;;;5.10;99.90;;;;;;5032529;28;20189;-75
2024/01/27 03:02:38;;;;;;;9.57;4.53;;;5.10;99.90;;;;;;5032526;28;20232;-75
2024/01/27 03:05:04;;;;;;;13.30;5.73;;;5.10;99.90;;;;;;5046505;28;20457;-76
2024/01/27 03:07:30;;;;;;;9.63;4.47;;;5.00;99.90;;;;;;5033246;28;20312;-76
2024/01/27 03:09:56;;;;;;;9.63;4.30;;;5.00;99.90;;;;;;5032847;28;20539;-75
2024/01/27 03:12:22;;;;;;;7.10;4.40;;;5.10;99.90;;;;;;5030973;28;20187;-75
2024/01/27 03:14:49;;;;;;;12.40;5.10;;;5.10;99.90;;;;;;5032960;28;20728;-75
2024/01/27 03:17:15;;;;;;;15.60;5.17;;;5.10;99.90;;;;;;5031379;28;20854;-75
2024/01/27 03:19:41;;;;;;;14.37;5.43;;;5.00;99.90;;;;;;5032413;28;20440;-75
2024/01/27 03:22:06;;;;;;;16.87;5.33;;;5.00;99.90;;;;;;5032438;28;20524;-75
2024/01/27 03:24:32;;;;;;;9.27;4.63;;;5.00;99.90;;;;;;5033010;28;20204;-75
2024/01/27 03:26:58;;;;;;;10.23;4.40;;;5.00;99.90;;;;;;5031850;28;20209;-75
2024/01/27 03:29:23;;;;;;;13.53;4.70;;;5.00;99.90;;;;;;5032773;28;20167;-75
2024/01/27 03:31:49;;;;;;;13.50;4.80;;;5.00;99.90;;;;;;5015926;28;20225;-75
2024/01/27 03:34:15;;;;;;;9.47;4.53;;;5.00;99.90;;;;;;5029928;28;20201;-75
2024/01/27 03:36:40;;;;;;;21.97;5.67;;;5.00;99.90;;;;;;5033068;28;20174;-75
2024/01/27 03:39:07;;;;;;;17.27;4.67;;;5.00;99.90;;;;;;5031518;28;20194;-75
2024/01/27 03:41:32;;;;;;;9.10;5.17;;;5.00;99.90;;;;;;5033134;28;20183;-76
2024/01/27 03:43:58;;;;;;;9.70;5.00;;;5.00;99.90;;;;;;5030927;28;20479;-75
2024/01/27 03:46:24;;;;;;;9.47;5.20;;;5.00;99.90;;;;;;5032213;28;20564;-76
2024/01/27 03:48:49;;;;;;;9.40;4.90;;;4.90;99.90;;;;;;5030401;28;20320;-76
2024/01/27 03:51:15;;;;;;;15.37;5.67;;;4.90;99.90;;;;;;5031648;28;20178;-76
2024/01/27 03:53:41;;;;;;;15.70;5.70;;;4.90;99.90;;;;;;5032584;28;20268;-76
2024/01/27 03:56:06;;;;;;;13.83;5.63;;;4.90;99.90;;;;;;5026390;28;20239;-76
2024/01/27 03:58:32;;;;;;;12.10;5.83;;;4.80;99.90;;;;;;5029173;28;20199;-76
2024/01/27 04:00:58;;;;;;;12.07;5.57;;;4.80;99.90;;;;;;5028873;28;20190;-75
2024/01/27 04:03:24;;;;;;;13.83;5.53;;;4.80;99.90;;;;;;5028318;28;20182;-76
2024/01/27 04:05:50;;;;;;;10.30;5.70;;;4.80;99.90;;;;;;5026665;28;20447;-76
2024/01/27 04:08:15;;;;;;;12.47;5.37;;;4.80;99.90;;;;;;5027003;28;20251;-75
2024/01/27 04:10:41;;;;;;;16.70;5.50;;;4.80;99.90;;;;;;5032840;28;20185;-75
2024/01/27 04:13:07;;;;;;;14.33;5.37;;;4.80;99.90;;;;;;5032354;28;20209;-76
2024/01/27 04:15:38;;;;;;;13.53;5.23;;;4.80;99.90;;;;;;5033488;28;20261;-76
2024/01/27 04:18:07;;;;;;;10.77;5.10;;;4.90;99.90;;;;;;5015173;28;20198;-76
2024/01/27 04:20:34;;;;;;;11.50;5.40;;;4.80;99.90;;;;;;5030951;28;20456;-76
2024/01/27 04:23:00;;;;;;;13.40;4.50;;;4.80;99.90;;;;;;5032094;28;20516;-76
2024/01/27 04:25:25;;;;;;;12.30;5.90;;;4.80;99.90;;;;;;5031694;28;20547;-76
2024/01/27 04:27:51;;;;;;;9.47;5.40;;;4.70;99.90;;;;;;5031164;28;20209;-75
2024/01/27 04:30:17;;;;;;;11.20;5.00;;;4.70;99.90;;;;;;5032034;28;20194;-76
2024/01/27 04:32:42;;;;;;;12.37;5.60;;;4.70;99.90;;;;;;5033610;28;20193;-75
2024/01/27 04:35:12;;;;;;;7.93;4.80;;;4.70;99.90;;;;;;5031366;28;20271;-76
2024/01/27 04:37:38;;;;;;;11.03;5.00;;;4.70;99.90;;;;;;5033685;28;20189;-76
2024/01/27 04:40:08;;;;;;;9.67;4.97;;;4.80;99.90;;;;;;5032558;28;21072;-76
2024/01/27 04:42:42;;;;;;;10.90;5.13;;;4.80;99.90;;;;;;5033574;28;20428;-76
2024/01/27 04:45:08;;;;;;;11.77;5.10;;;4.70;99.90;;;;;;5031077;28;20436;-76
2024/01/27 04:47:34;;;;;;;13.33;5.47;;;4.70;99.90;;;;;;5033291;28;20475;-76
2024/01/27 04:50:00;;;;;;;11.80;5.33;;;4.70;99.90;;;;;;5030730;28;20462;-76
2024/01/27 04:52:25;;;;;;;6.57;4.53;;;4.70;99.90;;;;;;5033186;28;20186;-75
2024/01/27 04:54:51;;;;;;;10.20;5.50;;;4.70;99.90;;;;;;5033019;28;20201;-76
2024/01/27 04:57:17;;;;;;;13.33;5.30;;;4.70;99.90;;;;;;5031331;28;20214;-75
2024/01/27 04:59:42;;;;;;;7.07;4.40;;;4.70;99.90;;;;;;5031964;28;20182;-76
2024/01/27 05:02:08;;;;;;;11.23;5.00;;;4.70;99.90;;;;;;5031426;28;20943;-75
2024/01/27 05:04:34;;;;;;;13.13;5.50;;;4.70;99.90;;;;;;5033416;28;20185;-76
2024/01/27 05:06:59;;;;;;;10.27;5.70;;;4.60;99.90;;;;;;5030619;28;20598;-76
2024/01/27 05:09:25;;;;;;;11.30;5.97;;;4.70;99.90;;;;;;5032121;28;20179;-76
2024/01/27 05:11:54;;;;;;;10.83;5.47;;;4.60;99.90;;;;;;5032466;28;20615;-76
2024/01/27 05:14:19;;;;;;;11.83;5.70;;;4.60;99.90;;;;;;5031169;28;20838;-76
2024/01/27 05:16:45;;;;;;;10.63;6.17;;;4.60;99.90;;;;;;5031795;28;20433;-75
2024/01/27 05:19:11;;;;;;;10.57;6.00;;;4.60;99.90;;;;;;5030644;28;20208;-76
2024/01/27 05:21:39;;;;;;;12.30;6.03;;;4.60;99.90;;;;;;5032295;28;20186;-76
2024/01/27 05:24:05;;;;;;;10.30;5.50;;;4.50;99.90;;;;;;5046290;28;20440;-76
2024/01/27 05:26:31;;;;;;;11.93;5.57;;;4.50;99.90;;;;;;5031495;28;20428;-76
2024/01/27 05:28:56;;;;;;;12.77;6.13;;;4.50;99.90;;;;;;5029579;28;20994;-75
2024/01/27 05:31:22;;;;;;;12.33;6.00;;;4.60;99.90;;;;;;5030526;28;20540;-76
2024/01/27 05:33:48;;;;;;;11.27;6.70;;;4.60;99.90;;;;;;5032683;28;20244;-76
2024/01/27 05:36:13;;;;;;;10.50;5.67;;;4.50;99.90;;;;;;5031928;28;20182;-76
2024/01/27 05:38:39;;;;;;;9.50;5.77;;;4.50;99.90;;;;;;5033760;28;20182;-76
2024/01/27 05:41:05;;;;;;;9.20;5.60;;;4.50;99.90;;;;;;5034225;28;20334;-76
2024/01/27 05:43:30;;;;;;;10.40;5.00;;;4.50;99.90;;;;;;5033554;28;20655;-76
2024/01/27 05:45:56;;;;;;;12.80;5.60;;;4.50;99.90;;;;;;5032664;28;20185;-76
2024/01/27 05:48:22;;;;;;;12.63;5.80;;;4.50;99.90;;;;;;5032432;28;20220;-76
2024/01/27 05:51:00;;;;;;;13.97;6.17;;;4.50;99.90;;;;;;5033695;28;20193;-76
2024/01/27 05:53:27;;;;;;;9.77;5.17;;;4.50;99.90;;;;;;5032537;28;20182;-76
2024/01/27 05:55:56;;;;;;;10.07;5.67;;;4.50;99.90;;;;;;5032948;28;20437;-76
2024/01/27 05:58:22;;;;;;;9.83;5.37;;;4.50;99.90;;;;;;5032098;28;20443;-76
2024/01/27 06:00:48;;;;;;;10.53;5.70;;;4.50;99.90;;;;;;5033201;28;20429;-76
2024/01/27 06:03:15;;;;;;;15.17;6.37;;;4.40;99.90;;;;;;5032328;28;20745;-75
2024/01/27 06:05:43;;;;;;;9.40;5.10;;;4.40;99.90;;;;;;5030924;28;21144;-75
2024/01/27 06:08:10;;;;;;;11.20;6.13;;;4.50;99.90;;;;;;5032670;28;20530;-76
2024/01/27 06:10:38;;;;;;;11.57;6.03;;;4.40;99.90;;;;;;5032316;28;20420;-76
2024/01/27 06:13:04;;;;;;;8.30;5.60;;;4.40;99.90;;;;;;5032489;28;20439;-75
2024/01/27 06:15:30;;;;;;;11.07;6.33;;;4.50;99.90;;;;;;5031596;28;20494;-76
2024/01/27 06:17:57;;;;;;;11.63;5.80;;;4.50;99.90;;;;;;5032559;28;20505;-76
2024/01/27 06:20:23;;;;;;;9.87;5.57;;;4.40;99.90;;;;;;5029929;28;20960;-76
2024/01/27 06:22:49;;;;;;;9.10;5.80;;;4.50;99.90;;;;;;5030876;28;20438;-75
2024/01/27 06:25:14;;;;;;;16.70;6.90;;;4.40;99.90;;;;;;5031128;28;20429;-76
2024/01/27 06:27:43;;;;;;;8.13;5.10;;;4.40;99.90;;;;;;5030956;28;20271;-76
2024/01/27 06:30:10;;;;;;;8.00;5.40;;;4.40;99.90;;;;;;5032041;28;20187;-76
2024/01/27 06:32:36;;;;;;;7.83;5.23;;;4.40;99.90;;;;;;5031449;28;21266;-76
2024/01/27 06:35:02;;;;;;;18.60;6.40;;;4.40;99.90;;;;;;5027160;28;20443;-76
2024/01/27 06:37:28;;;;;;;11.83;6.37;;;4.40;99.90;;;;;;5031249;28;20417;-76
2024/01/27 06:39:54;;;;;;;10.70;5.60;;;4.40;99.90;;;;;;5029241;28;20543;-76
2024/01/27 06:42:19;;;;;;;11.90;6.17;;;4.40;99.90;;;;;;5026663;28;20221;-76
2024/01/27 06:44:45;;;;;;;14.70;5.87;;;4.40;99.90;;;;;;5028165;28;20185;-76
2024/01/27 06:47:11;;;;;;;12.00;5.47;;;4.40;99.90;;;;;;5030872;28;20269;-76
2024/01/27 06:49:36;;;;;;;16.57;6.70;;;4.40;99.90;;;;;;5031225;28;20852;-77
2024/01/27 06:52:03;;;;;;;11.20;6.33;;;4.30;99.90;;;;;;5031600;28;20258;-76
2024/01/27 06:54:28;;;;;;;11.47;5.70;;;4.40;99.90;;;;;;5031124;28;20837;-75
2024/01/27 06:56:54;;;;;;;13.10;5.80;;;4.40;99.90;;;;;;5031654;28;20432;-75
2024/01/27 06:59:20;;;;;;;8.80;5.40;;;4.30;99.90;;;;;;5030120;28;20182;-76
2024/01/27 07:01:48;;;;;;;19.90;6.53;;;4.30;99.90;;;;;;5030238;28;20209;-75
2024/01/27 07:04:15;;;;;;;8.13;5.10;;;4.20;99.90;;;;;;5013742;28;20205;-75
2024/01/27 07:06:40;;;;;;;12.13;5.70;;;4.20;99.90;;;;;;5030090;28;20506;-76
2024/01/27 07:09:06;;;;;;;9.37;5.20;;;4.20;99.90;;;;;;5064437;28;20481;-75
2024/01/27 07:11:32;;;;;;;9.20;6.10;;;4.20;99.90;;;;;;5012467;28;20193;-77
2024/01/27 07:13:58;;;;;;;15.77;5.33;;;4.30;99.90;;;;;;5030280;28;20342;-76
2024/01/27 07:16:24;;;;;;;11.57;7.20;;;4.20;99.90;;;;;;5030641;28;20989;-76
2024/01/27 07:18:51;;;;;;;8.60;5.67;;;4.30;99.90;;;;;;5028843;28;20194;-76
2024/01/27 07:21:17;;;;;;;10.23;5.13;;;4.30;99.90;;;;;;5030103;28;20433;-76
2024/01/27 07:23:46;;;;;;;13.97;5.13;;;4.20;99.90;;;;;;5030740;28;21331;-76
2024/01/27 07:26:12;;;;;;;8.00;4.93;;;4.20;99.90;;;;;;5028873;28;20429;-76
2024/01/27 07:28:38;;;;;;;12.77;5.30;;;4.30;99.90;;;;;;5028454;28;20836;-75
2024/01/27 07:31:05;;;;;;;12.07;5.90;;;4.30;99.90;;;;;;5031359;28;20428;-75
2024/01/27 07:33:30;;;;;;;10.33;5.27;;;4.20;99.90;;;;;;5031442;28;21277;-76
2024/01/27 07:35:56;;;;;;;15.83;5.73;;;4.20;99.90;;;;;;5029284;28;20485;-76
2024/01/27 07:38:22;;;;;;;9.30;5.93;;;4.20;99.90;;;;;;5030665;28;21279;-76
2024/01/27 07:40:48;;;;;;;10.50;6.80;;;4.10;99.90;;;;;;5030225;28;20437;-76
2024/01/27 07:43:14;;;;;;;13.27;5.73;;;4.10;99.90;;;;;;5030294;28;21071;-75
2024/01/27 07:45:39;;;;;;;11.03;5.80;;;4.10;99.90;;;;;;5029437;28;20189;-76
2024/01/27 07:48:05;;;;;;;10.87;5.10;;;4.20;99.90;;;;;;5028304;28;20300;-75
2024/01/27 07:50:31;;;;;;;10.77;5.73;;;4.20;99.90;;;;;;5027226;28;20219;-76
2024/01/27 07:52:57;;;;;;;7.80;5.23;;;4.20;99.90;;;;;;5027168;28;20539;-75
2024/01/27 07:55:23;;;;;;;12.67;5.80;;;4.20;99.90;;;;;;5027084;28;20233;-76
2024/01/27 07:57:49;;;;;;;11.10;6.63;;;4.20;99.90;;;;;;5029255;28;21125;-76
2024/01/27 08:00:15;;;;;;;8.50;5.07;;;4.30;99.90;;;;;;5029768;28;20265;-75
2024/01/27 08:02:40;;;;;;;12.40;5.60;;;4.30;99.90;;;;;;5029725;28;20424;-76
2024/01/27 08:05:07;;;;;;;8.83;5.43;;;4.30;99.90;;;;;;5030197;28;20178;-76
2024/01/27 08:07:32;;;;;;;8.93;5.70;;;4.30;99.90;;;;;;5029878;28;20267;-76
2024/01/27 08:09:58;;;;;;;15.00;6.13;;;4.40;99.90;;;;;;5029744;28;20444;-75
2024/01/27 08:12:24;;;;;;;12.93;6.80;;;4.50;99.90;;;;;;5026518;28;20190;-76
2024/01/27 08:14:50;;;;;;;14.60;6.63;;;4.50;99.90;;;;;;5027972;28;20429;-72
2024/01/27 08:17:15;;;;;;;9.47;5.47;;;4.60;99.90;;;;;;5010794;28;20183;-75
2024/01/27 08:19:41;;;;;;;11.90;6.57;;;4.80;99.90;;;;;;5025166;28;20250;-75
2024/01/27 08:22:09;;;;;;;8.40;5.10;;;4.90;99.90;;;;;;5027886;28;20194;-75
2024/01/27 08:24:35;;;;;;;9.37;5.33;;;5.10;99.90;;;;;;5024293;28;20189;-74
2024/01/27 08:27:01;;;;;;;8.27;5.67;;;5.20;99.90;;;;;;5026616;28;20437;-75
2024/01/27 08:29:26;;;;;;;9.70;5.30;;;5.40;99.90;;;;;;5031124;28;20416;-76
2024/01/27 08:31:52;;;;;;;13.17;5.50;;;5.60;99.90;;;;;;5028755;28;20435;-73
2024/01/27 08:34:18;;;;;;;9.33;5.40;;;5.70;99.90;;;;;;5031142;28;20182;-72
2024/01/27 08:36:43;;;;;;;8.70;4.73;;;5.90;99.90;;;;;;5029560;28;20231;-72
2024/01/27 08:39:11;;;;;;;10.70;5.67;;;6.10;99.90;;;;;;5030766;28;20182;-73
2024/01/27 08:41:37;;;;;;;9.43;5.50;;;6.30;99.90;;;;;;5030541;28;20309;-73
2024/01/27 08:44:03;;;;;;;9.13;5.17;;;6.50;99.90;;;;;;5029585;28;20515;-73
2024/01/27 08:46:29;;;;;;;14.43;5.73;;;6.70;99.90;;;;;;5028261;28;20222;-73
2024/01/27 08:48:54;;;;;;;16.13;5.70;;;6.80;99.90;;;;;;5061767;28;20472;-71
2024/01/27 08:51:20;;;;;;;14.67;5.90;;;6.90;99.90;;;;;;5029903;28;20198;-72
2024/01/27 08:53:48;;;;;;;10.07;5.10;;;7.00;99.90;;;;;;5030546;28;20178;-72
2024/01/27 08:56:18;;;;;;;12.67;5.20;;;7.10;99.90;;;;;;5032174;28;20224;-71
2024/01/27 08:58:44;;;;;;;11.60;5.57;;;7.20;99.90;;;;;;5033487;28;20518;-74
2024/01/27 09:01:12;;;;;;;10.93;4.30;;;7.40;99.90;;;;;;5033452;28;20520;-72
2024/01/27 09:03:40;;;;;;;12.53;5.53;;;7.50;99.90;;;;;;5033462;28;20463;-71
2024/01/27 09:06:07;;;;;;;13.47;4.90;;;7.60;99.90;;;;;;5032513;28;20427;-72
2024/01/27 09:08:34;;;;;;;7.33;4.73;;;7.80;99.90;;;;;;5032696;28;20503;-72
2024/01/27 09:11:00;;;;;;;11.70;4.63;;;7.80;99.90;;;;;;5032998;28;20461;-73
2024/01/27 09:13:26;;;;;;;8.87;4.53;;;7.90;99.90;;;;;;5033761;28;20428;-70
2024/01/27 09:15:52;;;;;;;15.50;5.67;;;8.10;99.90;;;;;;5032599;28;20490;-72
2024/01/27 09:18:18;;;;;;;7.83;4.70;;;8.10;99.90;;;;;;5034309;28;20524;-71
2024/01/27 09:20:43;;;;;;;9.57;5.27;;;8.30;99.90;;;;;;5032204;28;20670;-72
2024/01/27 09:23:09;;;;;;;7.80;5.00;;;8.40;99.90;;;;;;5033544;28;20201;-73
2024/01/27 09:25:35;;;;;;;12.20;5.47;;;8.50;99.90;;;;;;5032695;28;20187;-71
2024/01/27 09:28:01;;;;;;;13.77;5.47;;;8.50;99.90;;;;;;5030116;28;21018;-71
2024/01/27 09:30:27;;;;;;;11.60;4.90;;;8.60;99.90;;;;;;5032919;28;20255;-73
2024/01/27 09:32:52;;;;;;;8.63;4.60;;;8.60;99.90;;;;;;5032993;28;20445;-73
2024/01/27 09:35:18;;;;;;;11.23;4.70;;;8.80;99.90;;;;;;5032227;28;20425;-69
2024/01/27 09:37:46;;;;;;;15.60;5.40;;;8.80;99.90;;;;;;5033120;28;20288;-71
2024/01/27 09:40:12;;;;;;;8.03;4.90;;;9.00;99.90;;;;;;5032812;28;20600;-70
2024/01/27 09:42:41;;;;;;;10.13;4.70;;;9.00;99.90;;;;;;5033144;28;20420;-72
2024/01/27 09:45:09;;;;;;;11.07;3.97;;;9.20;99.90;;;;;;5032296;28;20428;-73
2024/01/27 09:47:36;;;;;;;10.70;4.30;;;9.20;99.90;;;;;;5031858;28;20479;-73
2024/01/27 09:50:02;;;;;;;13.63;4.90;;;9.40;99.90;;;;;;5032113;28;20425;-69
2024/01/27 09:52:28;;;;;;;9.90;5.53;;;9.40;99.90;;;;;;5033199;28;20428;-75
2024/01/27 09:54:53;;;;;;;11.63;5.33;;;9.50;99.90;;;;;;5031533;28;20435;-75
2024/01/27 09:57:20;;;;;;;13.80;4.97;;;9.60;99.90;;;;;;5030855;28;20205;-75
2024/01/27 09:59:49;;;;;;;12.07;4.50;;;9.70;99.90;;;;;;5033430;28;20239;-74
2024/01/27 10:02:17;;;;;;;8.83;4.87;;;9.90;99.90;;;;;;5031387;28;20432;-71
2024/01/27 10:04:45;;;;;;;11.63;5.20;;;10.00;99.90;;;;;;5032364;28;20421;-74
2024/01/27 10:07:10;;;;;;;13.00;4.13;;;10.10;99.90;;;;;;5029241;28;20433;-70
2024/01/27 10:09:36;;;;;;;13.10;5.70;;;10.20;99.90;;;;;;5032961;28;20447;-71
2024/01/27 10:12:03;;;;;;;10.40;4.50;;;10.40;99.90;;;;;;5031119;28;20649;-72
2024/01/27 10:14:39;;;;;;;10.30;4.07;;;10.50;99.90;;;;;;5032164;28;20179;-73
2024/01/27 10:17:05;;;;;;;6.80;3.50;;;10.50;99.90;;;;;;5030848;28;20514;-73
2024/01/27 10:19:30;;;;;;;11.77;3.53;;;10.70;99.90;;;;;;5032785;28;21007;-71
2024/01/27 10:22:02;;;;;;;12.20;3.93;;;10.70;99.90;;;;;;5031549;28;20189;-73
2024/01/27 10:24:28;;;;;;;16.90;4.50;;;10.90;99.90;;;;;;5032266;28;20273;-72
2024/01/27 10:27:03;;;;;;;8.10;4.37;;;11.00;99.90;;;;;;5012659;28;20429;-71
2024/01/27 10:29:33;;;;;;;8.13;4.50;;;11.20;99.90;;;;;;5046617;28;20475;-72
2024/01/27 10:32:10;;;;;;;8.80;4.23;;;11.40;99.90;;;;;;5030594;28;20439;-72
2024/01/27 10:34:35;;;;;;;11.17;3.70;;;11.60;99.90;;;;;;5031321;28;20501;-69
2024/01/27 10:37:01;;;;;;;7.57;3.70;;;11.80;99.90;;;;;;5031077;28;21379;-73
2024/01/27 10:39:28;;;;;;;9.70;4.10;;;11.90;99.90;;;;;;5031233;28;20181;-73
2024/01/27 10:41:53;;;;;;;10.87;4.20;;;11.90;99.90;;;;;;5031589;28;20230;-73
2024/01/27 10:44:20;;;;;;;8.47;4.00;;;11.70;99.90;;;;;;5030591;28;20835;-70
2024/01/27 10:46:49;;;;;;;14.53;4.30;;;11.50;99.90;;;;;;5031198;28;20953;-72
2024/01/27 10:49:17;;;;;;;8.93;3.90;;;11.20;99.90;;;;;;5030782;28;20476;-72
2024/01/27 10:51:52;;;;;;;8.23;3.30;;;10.90;99.90;;;;;;5031375;28;20452;-70
2024/01/27 10:54:24;;;;;;;18.03;5.00;;;10.60;99.90;;;;;;5030876;28;20434;-71
2024/01/27 10:56:53;;;;;;;8.37;4.50;;;10.30;99.90;;;;;;5030951;28;20535;-72
2024/01/27 10:59:20;;;;;;;12.30;4.03;;;10.20;99.90;;;;;;5028502;28;20882;-72
2024/01/27 11:01:51;;;;;;;14.43;4.87;;;10.10;99.90;;;;;;5031309;28;20527;-71
2024/01/27 11:04:18;;;;;;;11.43;3.83;;;10.10;99.90;;;;;;5030301;28;20436;-72
2024/01/27 11:06:45;;;;;;;9.10;3.70;;;10.10;99.90;;;;;;5029629;28;20425;-72
2024/01/27 11:09:12;;;;;;;9.40;3.97;;;10.00;99.90;;;;;;5028659;28;20476;-71
2024/01/27 11:11:39;;;;;;;7.63;3.50;;;9.90;99.90;;;;;;5023548;28;20463;-70
2024/01/27 11:14:05;;;;;;;6.37;3.07;;;9.90;99.90;;;;;;5026959;28;20425;-72
2024/01/27 11:16:31;;;;;;;10.27;4.53;;;9.90;99.90;;;;;;5029404;28;20479;-70
2024/01/27 11:18:57;;;;;;;12.43;4.13;;;9.90;99.90;;;;;;5063373;28;20425;-72
2024/01/27 11:21:23;;;;;;;12.70;4.13;;;9.80;99.90;;;;;;5028436;28;20193;-72
2024/01/27 11:23:48;;;;;;;7.70;3.00;;;9.80;99.90;;;;;;5031593;28;20799;-70
2024/01/27 11:26:22;;;;;;;6.33;3.23;;;9.80;99.90;;;;;;5029601;28;20244;-70
2024/01/27 11:28:49;;;;;;;13.73;4.20;;;10.00;99.90;;;;;;5029985;28;20221;-70
2024/01/27 11:31:18;;;;;;;9.03;4.07;;;10.30;99.90;;;;;;5029172;28;20447;-74
2024/01/27 11:33:48;;;;;;;8.63;3.20;;;10.50;99.90;;;;;;5031191;28;20424;-71
2024/01/27 11:36:22;;;;;;;13.37;3.90;;;10.70;99.90;;;;;;5029507;28;21199;-71
2024/01/27 11:38:48;;;;;;;8.03;3.30;;;10.60;99.90;;;;;;5031273;28;20442;-73
2024/01/27 11:41:24;;;;;;;7.67;3.53;;;10.60;99.90;;;;;;5029814;28;21014;-71
2024/01/27 11:43:57;;;;;;;8.90;4.70;;;10.80;99.90;;;;;;5030272;28;20443;-73
2024/01/27 11:46:23;;;;;;;11.23;4.10;;;11.10;99.90;;;;;;5044492;28;20532;-70
2024/01/27 11:48:49;;;;;;;6.67;3.50;;;11.40;99.90;;;;;;5031814;28;20471;-73
2024/01/27 11:51:15;;;;;;;8.17;3.63;;;11.50;99.90;;;;;;5028800;28;20914;-71
2024/01/27 11:53:41;;;;;;;6.90;2.93;;;11.50;99.90;;;;;;5031014;28;20428;-73
2024/01/27 11:56:07;;;;;;;13.63;4.60;;;11.60;99.90;;;;;;5061059;28;20429;-73
2024/01/27 11:58:33;;;;;;;8.03;3.43;;;12.70;99.90;;;;;;5030578;28;20240;-73
2024/01/27 12:00:59;;;;;;;12.10;3.47;;;14.60;98.20;;;;;;5030993;28;20189;-72
2024/01/27 12:03:25;;;;;;;9.40;3.40;;;16.50;94.30;;;;;;5029429;28;20857;-73
2024/01/27 12:05:51;;;;;;;8.60;3.47;;;18.30;90.30;;;;;;5029923;28;20305;-72
2024/01/27 12:08:17;;;;;;;10.17;2.73;;;20.10;78.60;;;;;;5027304;28;20503;-73
2024/01/27 12:10:43;;;;;;;8.60;3.30;;;21.30;70.50;;;;;;5030349;28;20453;-71
2024/01/27 12:13:09;;;;;;;8.60;2.53;;;22.20;60.90;;;;;;5029544;28;20428;-72
2024/01/27 12:15:35;;;;;;;7.50;3.00;;;22.60;57.50;;;;;;5028262;28;21156;-73
2024/01/27 12:18:01;;;;;;;7.97;3.17;;;22.80;55.90;;;;;;5030981;28;20189;-73
2024/01/27 12:20:27;;;;;;;5.73;2.80;;;23.10;55.50;;;;;;5028084;28;20425;-72
2024/01/27 12:23:05;;;;;;;6.63;2.70;;;23.90;53.60;;;;;;5029558;28;20240;-73
2024/01/27 12:25:31;;;;;;;6.57;3.23;;;24.50;51.60;;;;;;5028831;28;20185;-73
2024/01/27 12:28:01;;;;;;;10.50;2.93;;;24.80;49.30;;;;;;5029341;28;20467;-73
2024/01/27 12:30:27;;;;;;;9.07;4.30;;;25.10;47.80;;;;;;5031076;28;20602;-71
2024/01/27 12:32:53;;;;;;;8.70;3.27;;;25.20;47.10;;;;;;5034758;28;20487;-74
2024/01/27 12:35:18;;;;;;;8.10;3.57;;;24.70;46.10;;;;;;5031950;28;20196;-72
2024/01/27 12:37:44;;;;;;;11.10;3.57;;;23.00;45.70;;;;;;5032551;28;20240;-73
2024/01/27 12:40:21;;;;;;;7.97;3.67;;;20.70;47.50;;;;;;5034142;28;20198;-71
2024/01/27 12:42:47;;;;;;;8.43;3.07;;;18.40;50.60;;;;;;5033391;28;20193;-72